sensor_id;sensor_type;location;lat;lon;timestamp;P1;durP1;ratioP1;P2;durP2;ratioP2
13764;SDS011;6953;48.810;9.204;2022-09-27T00:01:53;0.50;;;0.50;;
13764;SDS011;6953;48.810;9.204;2022-09-27T00:04:19;0.60;;;0.60;;
13764;SDS011;6953;48.810;9.204;2022-09-27T00:06:44;0.50;;;0.50;;
13764;SDS011;6953;48.810;9.204;2022-09-27T00:09:10;0.40;;;0.40;;
13764;SDS011;6953;48.810;9.204;2022-09-27T00:11:36;0.40;;;0.40;;
13764;SDS011;6953;48.810;9.204;2022-09-27T00:14:03;0.52;;;0.52;;
13764;SDS011;6953;48.810;9.204;2022-09-27T00:16:31;0.50;;;0.50;;
13764;SDS011;6953;48.810;9.204;2022-09-27T00:19:03;0.38;;;0.38;;
13764;SDS011;6953;48.810;9.204;2022-09-27T00:21:34;0.50;;;0.50;;
13764;SDS011;6953;48.810;9.204;2022-09-27T00:24:00;0.40;;;0.40;;
13764;SDS011;6953;48.810;9.204;2022-09-27T00:26:26;0.50;;;0.50;;
13764;SDS011;6953;48.810;9.204;2022-09-27T00:28:52;0.40;;;0.40;;
13764;SDS011;6953;48.810;9.204;2022-09-27T00:31:22;0.40;;;0.40;;
13764;SDS011;6953;48.810;9.204;2022-09-27T00:33:50;0.57;;;0.57;;
13764;SDS011;6953;48.810;9.204;2022-09-27T00:36:17;0.50;;;0.50;;
13764;SDS011;6953;48.810;9.204;2022-09-27T00:38:44;0.50;;;0.50;;
13764;SDS011;6953;48.810;9.204;2022-09-27T00:41:13;0.47;;;0.47;;
13764;SDS011;6953;48.810;9.204;2022-09-27T00:44:01;0.50;;;0.50;;
13764;SDS011;6953;48.810;9.204;2022-09-27T00:47:00;0.38;;;0.38;;
13764;SDS011;6953;48.810;9.204;2022-09-27T00:52:07;0.35;;;0.35;;
13764;SDS011;6953;48.810;9.204;2022-09-27T00:54:35;0.50;;;0.50;;
13764;SDS011;6953;48.810;9.204;2022-09-27T00:57:04;0.43;;;0.43;;
13764;SDS011;6953;48.810;9.204;2022-09-27T00:59:37;0.50;;;0.50;;
13764;SDS011;6953;48.810;9.204;2022-09-27T01:02:07;0.60;;;0.60;;
13764;SDS011;6953;48.810;9.204;2022-09-27T01:04:33;0.40;;;0.40;;
13764;SDS011;6953;48.810;9.204;2022-09-27T01:07:01;0.47;;;0.47;;
13764;SDS011;6953;48.810;9.204;2022-09-27T01:09:27;0.40;;;0.40;;
13764;SDS011;6953;48.810;9.204;2022-09-27T01:11:54;0.47;;;0.47;;
13764;SDS011;6953;48.810;9.204;2022-09-27T01:14:40;0.50;;;0.50;;
13764;SDS011;6953;48.810;9.204;2022-09-27T01:34:00;0.40;;;0.40;;
13764;SDS011;6953;48.810;9.204;2022-09-27T01:42:01;0.50;;;0.50;;
13764;SDS011;6953;48.810;9.204;2022-09-27T01:47:09;0.47;;;0.47;;
13764;SDS011;6953;48.810;9.204;2022-09-27T01:49:42;0.40;;;0.40;;
13764;SDS011;6953;48.810;9.204;2022-09-27T01:52:14;0.40;;;0.40;;
13764;SDS011;6953;48.810;9.204;2022-09-27T01:54:45;0.40;;;0.40;;
13764;SDS011;6953;48.810;9.204;2022-09-27T01:57:18;0.50;;;0.50;;
13764;SDS011;6953;48.810;9.204;2022-09-27T01:59:51;0.40;;;0.40;;
13764;SDS011;6953;48.810;9.204;2022-09-27T02:02:21;0.40;;;0.40;;
13764;SDS011;6953;48.810;9.204;2022-09-27T02:04:49;0.50;;;0.50;;
13764;SDS011;6953;48.810;9.204;2022-09-27T02:07:21;0.47;;;0.47;;
13764;SDS011;6953;48.810;9.204;2022-09-27T02:09:58;0.40;;;0.40;;
13764;SDS011;6953;48.810;9.204;2022-09-27T02:12:38;0.47;;;0.47;;
13764;SDS011;6953;48.810;9.204;2022-09-27T02:15:10;0.40;;;0.40;;
13764;SDS011;6953;48.810;9.204;2022-09-27T02:17:43;0.40;;;0.40;;
13764;SDS011;6953;48.810;9.204;2022-09-27T02:20:38;0.40;;;0.40;;
13764;SDS011;6953;48.810;9.204;2022-09-27T02:30:54;0.40;;;0.40;;
13764;SDS011;6953;48.810;9.204;2022-09-27T02:33:22;0.50;;;0.50;;
13764;SDS011;6953;48.810;9.204;2022-09-27T02:35:50;0.40;;;0.40;;
13764;SDS011;6953;48.810;9.204;2022-09-27T02:38:15;0.50;;;0.50;;
13764;SDS011;6953;48.810;9.204;2022-09-27T02:40:44;0.40;;;0.40;;
13764;SDS011;6953;48.810;9.204;2022-09-27T02:43:11;0.40;;;0.40;;
13764;SDS011;6953;48.810;9.204;2022-09-27T02:48:42;0.50;;;0.50;;
13764;SDS011;6953;48.810;9.204;2022-09-27T02:51:35;0.40;;;0.40;;
13764;SDS011;6953;48.810;9.204;2022-09-27T02:54:07;0.40;;;0.40;;
13764;SDS011;6953;48.810;9.204;2022-09-27T02:57:10;0.50;;;0.50;;
13764;SDS011;6953;48.810;9.204;2022-09-27T03:03:19;0.40;;;0.40;;
13764;SDS011;6953;48.810;9.204;2022-09-27T03:05:19;0.43;;;0.43;;
13764;SDS011;6953;48.810;9.204;2022-09-27T03:07:47;0.50;;;0.50;;
13764;SDS011;6953;48.810;9.204;2022-09-27T03:10:17;0.40;;;0.40;;
13764;SDS011;6953;48.810;9.204;2022-09-27T03:12:45;0.40;;;0.40;;
13764;SDS011;6953;48.810;9.204;2022-09-27T03:15:11;0.40;;;0.40;;
13764;SDS011;6953;48.810;9.204;2022-09-27T03:17:37;0.50;;;0.50;;
13764;SDS011;6953;48.810;9.204;2022-09-27T03:20:03;0.43;;;0.43;;
13764;SDS011;6953;48.810;9.204;2022-09-27T03:22:28;0.38;;;0.38;;
13764;SDS011;6953;48.810;9.204;2022-09-27T03:24:54;0.43;;;0.43;;
13764;SDS011;6953;48.810;9.204;2022-09-27T03:27:19;0.40;;;0.40;;
13764;SDS011;6953;48.810;9.204;2022-09-27T03:29:44;0.40;;;0.40;;
13764;SDS011;6953;48.810;9.204;2022-09-27T03:32:10;0.50;;;0.50;;
13764;SDS011;6953;48.810;9.204;2022-09-27T03:34:35;0.45;;;0.45;;
13764;SDS011;6953;48.810;9.204;2022-09-27T03:37:01;0.47;;;0.47;;
13764;SDS011;6953;48.810;9.204;2022-09-27T03:39:26;0.50;;;0.50;;
13764;SDS011;6953;48.810;9.204;2022-09-27T03:41:51;0.50;;;0.50;;
13764;SDS011;6953;48.810;9.204;2022-09-27T03:44:17;0.35;;;0.35;;
13764;SDS011;6953;48.810;9.204;2022-09-27T03:46:42;0.40;;;0.40;;
13764;SDS011;6953;48.810;9.204;2022-09-27T03:49:07;0.40;;;0.40;;
13764;SDS011;6953;48.810;9.204;2022-09-27T03:51:33;0.50;;;0.50;;
13764;SDS011;6953;48.810;9.204;2022-09-27T03:53:58;0.50;;;0.50;;
13764;SDS011;6953;48.810;9.204;2022-09-27T03:56:23;0.50;;;0.50;;
13764;SDS011;6953;48.810;9.204;2022-09-27T03:58:49;0.45;;;0.45;;
13764;SDS011;6953;48.810;9.204;2022-09-27T04:01:14;0.43;;;0.43;;
13764;SDS011;6953;48.810;9.204;2022-09-27T04:03:40;0.50;;;0.50;;
13764;SDS011;6953;48.810;9.204;2022-09-27T04:06:05;0.60;;;0.60;;
13764;SDS011;6953;48.810;9.204;2022-09-27T04:08:31;0.50;;;0.50;;
13764;SDS011;6953;48.810;9.204;2022-09-27T04:10:56;0.47;;;0.47;;
13764;SDS011;6953;48.810;9.204;2022-09-27T04:13:22;0.50;;;0.50;;
13764;SDS011;6953;48.810;9.204;2022-09-27T04:15:48;0.45;;;0.45;;
13764;SDS011;6953;48.810;9.204;2022-09-27T04:18:13;0.50;;;0.50;;
13764;SDS011;6953;48.810;9.204;2022-09-27T04:20:39;0.40;;;0.40;;
13764;SDS011;6953;48.810;9.204;2022-09-27T04:23:07;0.40;;;0.40;;
13764;SDS011;6953;48.810;9.204;2022-09-27T04:25:33;0.40;;;0.40;;
13764;SDS011;6953;48.810;9.204;2022-09-27T04:27:59;0.50;;;0.50;;
13764;SDS011;6953;48.810;9.204;2022-09-27T04:30:27;0.30;;;0.30;;
13764;SDS011;6953;48.810;9.204;2022-09-27T04:32:53;0.40;;;0.40;;
13764;SDS011;6953;48.810;9.204;2022-09-27T04:35:19;0.40;;;0.40;;
13764;SDS011;6953;48.810;9.204;2022-09-27T04:38:03;0.57;;;0.57;;
13764;SDS011;6953;48.810;9.204;2022-09-27T04:40:28;0.40;;;0.40;;
13764;SDS011;6953;48.810;9.204;2022-09-27T04:42:54;0.40;;;0.40;;
13764;SDS011;6953;48.810;9.204;2022-09-27T04:45:20;0.40;;;0.40;;
13764;SDS011;6953;48.810;9.204;2022-09-27T04:47:46;0.50;;;0.50;;
13764;SDS011;6953;48.810;9.204;2022-09-27T04:50:13;0.43;;;0.43;;
13764;SDS011;6953;48.810;9.204;2022-09-27T04:52:41;0.32;;;0.32;;
13764;SDS011;6953;48.810;9.204;2022-09-27T04:55:07;0.30;;;0.30;;
13764;SDS011;6953;48.810;9.204;2022-09-27T04:57:33;0.40;;;0.40;;
13764;SDS011;6953;48.810;9.204;2022-09-27T04:59:59;0.40;;;0.40;;
13764;SDS011;6953;48.810;9.204;2022-09-27T05:02:27;0.40;;;0.40;;
13764;SDS011;6953;48.810;9.204;2022-09-27T05:04:53;0.40;;;0.40;;
13764;SDS011;6953;48.810;9.204;2022-09-27T05:07:23;0.47;;;0.47;;
13764;SDS011;6953;48.810;9.204;2022-09-27T05:09:48;0.40;;;0.40;;
13764;SDS011;6953;48.810;9.204;2022-09-27T05:12:14;0.40;;;0.40;;
13764;SDS011;6953;48.810;9.204;2022-09-27T05:14:39;0.40;;;0.40;;
13764;SDS011;6953;48.810;9.204;2022-09-27T05:17:04;0.40;;;0.40;;
13764;SDS011;6953;48.810;9.204;2022-09-27T05:19:31;0.30;;;0.30;;
13764;SDS011;6953;48.810;9.204;2022-09-27T05:21:57;0.40;;;0.40;;
13764;SDS011;6953;48.810;9.204;2022-09-27T05:24:23;0.30;;;0.30;;
13764;SDS011;6953;48.810;9.204;2022-09-27T05:26:48;0.40;;;0.40;;
13764;SDS011;6953;48.810;9.204;2022-09-27T05:29:13;0.47;;;0.47;;
13764;SDS011;6953;48.810;9.204;2022-09-27T05:31:39;0.40;;;0.40;;
13764;SDS011;6953;48.810;9.204;2022-09-27T05:34:04;0.40;;;0.40;;
13764;SDS011;6953;48.810;9.204;2022-09-27T05:36:33;0.47;;;0.47;;
13764;SDS011;6953;48.810;9.204;2022-09-27T05:38:58;0.40;;;0.40;;
13764;SDS011;6953;48.810;9.204;2022-09-27T05:41:23;0.40;;;0.40;;
13764;SDS011;6953;48.810;9.204;2022-09-27T05:43:50;0.50;;;0.50;;
13764;SDS011;6953;48.810;9.204;2022-09-27T05:46:16;0.50;;;0.50;;
13764;SDS011;6953;48.810;9.204;2022-09-27T05:48:41;0.40;;;0.40;;
13764;SDS011;6953;48.810;9.204;2022-09-27T05:51:07;0.50;;;0.50;;
13764;SDS011;6953;48.810;9.204;2022-09-27T05:53:32;0.50;;;0.50;;
13764;SDS011;6953;48.810;9.204;2022-09-27T05:56:01;0.40;;;0.40;;
13764;SDS011;6953;48.810;9.204;2022-09-27T05:58:30;0.40;;;0.40;;
13764;SDS011;6953;48.810;9.204;2022-09-27T06:00:55;0.50;;;0.50;;
13764;SDS011;6953;48.810;9.204;2022-09-27T06:03:21;0.55;;;0.55;;
13764;SDS011;6953;48.810;9.204;2022-09-27T06:05:46;0.50;;;0.50;;
13764;SDS011;6953;48.810;9.204;2022-09-27T06:08:12;0.40;;;0.40;;
13764;SDS011;6953;48.810;9.204;2022-09-27T06:10:39;0.50;;;0.50;;
13764;SDS011;6953;48.810;9.204;2022-09-27T06:13:14;0.50;;;0.50;;
13764;SDS011;6953;48.810;9.204;2022-09-27T06:15:41;0.50;;;0.50;;
13764;SDS011;6953;48.810;9.204;2022-09-27T06:20:37;0.50;;;0.50;;
13764;SDS011;6953;48.810;9.204;2022-09-27T06:23:07;0.50;;;0.50;;
13764;SDS011;6953;48.810;9.204;2022-09-27T06:25:33;0.40;;;0.40;;
13764;SDS011;6953;48.810;9.204;2022-09-27T06:27:59;0.50;;;0.50;;
13764;SDS011;6953;48.810;9.204;2022-09-27T06:30:25;0.50;;;0.50;;
13764;SDS011;6953;48.810;9.204;2022-09-27T06:32:57;0.47;;;0.47;;
13764;SDS011;6953;48.810;9.204;2022-09-27T06:35:24;0.40;;;0.40;;
13764;SDS011;6953;48.810;9.204;2022-09-27T06:37:50;0.50;;;0.50;;
13764;SDS011;6953;48.810;9.204;2022-09-27T06:40:16;0.40;;;0.40;;
13764;SDS011;6953;48.810;9.204;2022-09-27T06:42:42;0.50;;;0.50;;
13764;SDS011;6953;48.810;9.204;2022-09-27T06:45:08;0.40;;;0.40;;
13764;SDS011;6953;48.810;9.204;2022-09-27T06:47:35;0.38;;;0.38;;
13764;SDS011;6953;48.810;9.204;2022-09-27T06:50:01;0.50;;;0.50;;
13764;SDS011;6953;48.810;9.204;2022-09-27T06:52:29;0.40;;;0.40;;
13764;SDS011;6953;48.810;9.204;2022-09-27T06:54:55;0.50;;;0.50;;
13764;SDS011;6953;48.810;9.204;2022-09-27T06:57:20;0.47;;;0.47;;
13764;SDS011;6953;48.810;9.204;2022-09-27T07:00:05;0.40;;;0.40;;
13764;SDS011;6953;48.810;9.204;2022-09-27T07:02:48;0.50;;;0.50;;
13764;SDS011;6953;48.810;9.204;2022-09-27T07:05:14;0.52;;;0.52;;
13764;SDS011;6953;48.810;9.204;2022-09-27T07:07:40;0.57;;;0.57;;
13764;SDS011;6953;48.810;9.204;2022-09-27T07:10:08;0.32;;;0.32;;
13764;SDS011;6953;48.810;9.204;2022-09-27T07:12:34;0.40;;;0.40;;
13764;SDS011;6953;48.810;9.204;2022-09-27T07:15:03;0.47;;;0.47;;
13764;SDS011;6953;48.810;9.204;2022-09-27T07:17:29;0.40;;;0.40;;
13764;SDS011;6953;48.810;9.204;2022-09-27T07:19:54;0.50;;;0.50;;
13764;SDS011;6953;48.810;9.204;2022-09-27T07:22:20;0.60;;;0.60;;
13764;SDS011;6953;48.810;9.204;2022-09-27T07:24:46;0.60;;;0.60;;
13764;SDS011;6953;48.810;9.204;2022-09-27T07:27:11;0.52;;;0.52;;
13764;SDS011;6953;48.810;9.204;2022-09-27T07:29:37;0.45;;;0.45;;
13764;SDS011;6953;48.810;9.204;2022-09-27T07:32:03;0.50;;;0.50;;
13764;SDS011;6953;48.810;9.204;2022-09-27T07:34:28;0.40;;;0.40;;
13764;SDS011;6953;48.810;9.204;2022-09-27T07:36:57;0.50;;;0.50;;
13764;SDS011;6953;48.810;9.204;2022-09-27T07:39:24;0.30;;;0.30;;
13764;SDS011;6953;48.810;9.204;2022-09-27T07:41:50;0.47;;;0.47;;
13764;SDS011;6953;48.810;9.204;2022-09-27T07:44:16;0.45;;;0.45;;
13764;SDS011;6953;48.810;9.204;2022-09-27T07:46:41;0.45;;;0.45;;
13764;SDS011;6953;48.810;9.204;2022-09-27T07:49:07;0.40;;;0.40;;
13764;SDS011;6953;48.810;9.204;2022-09-27T07:51:32;0.50;;;0.50;;
13764;SDS011;6953;48.810;9.204;2022-09-27T07:53:58;0.40;;;0.40;;
13764;SDS011;6953;48.810;9.204;2022-09-27T07:56:25;0.40;;;0.40;;
13764;SDS011;6953;48.810;9.204;2022-09-27T07:58:51;0.50;;;0.50;;
13764;SDS011;6953;48.810;9.204;2022-09-27T08:01:16;0.38;;;0.38;;
13764;SDS011;6953;48.810;9.204;2022-09-27T08:03:41;0.50;;;0.50;;
13764;SDS011;6953;48.810;9.204;2022-09-27T08:06:07;0.40;;;0.40;;
13764;SDS011;6953;48.810;9.204;2022-09-27T08:08:33;0.40;;;0.40;;
13764;SDS011;6953;48.810;9.204;2022-09-27T08:10:58;0.40;;;0.40;;
13764;SDS011;6953;48.810;9.204;2022-09-27T08:13:24;0.30;;;0.30;;
13764;SDS011;6953;48.810;9.204;2022-09-27T08:15:50;0.30;;;0.30;;
13764;SDS011;6953;48.810;9.204;2022-09-27T08:18:16;0.40;;;0.40;;
13764;SDS011;6953;48.810;9.204;2022-09-27T08:20:42;0.40;;;0.40;;
13764;SDS011;6953;48.810;9.204;2022-09-27T08:23:07;0.40;;;0.40;;
13764;SDS011;6953;48.810;9.204;2022-09-27T08:25:33;0.40;;;0.40;;
13764;SDS011;6953;48.810;9.204;2022-09-27T08:27:59;0.40;;;0.40;;
13764;SDS011;6953;48.810;9.204;2022-09-27T08:30:27;0.30;;;0.30;;
13764;SDS011;6953;48.810;9.204;2022-09-27T08:32:58;0.30;;;0.30;;
13764;SDS011;6953;48.810;9.204;2022-09-27T08:35:25;0.30;;;0.30;;
13764;SDS011;6953;48.810;9.204;2022-09-27T08:37:55;0.30;;;0.30;;
13764;SDS011;6953;48.810;9.204;2022-09-27T08:40:24;0.30;;;0.30;;
13764;SDS011;6953;48.810;9.204;2022-09-27T08:42:59;0.10;;;0.10;;
13764;SDS011;6953;48.810;9.204;2022-09-27T08:45:36;0.20;;;0.20;;
13764;SDS011;6953;48.810;9.204;2022-09-27T08:48:08;0.20;;;0.20;;
13764;SDS011;6953;48.810;9.204;2022-09-27T08:50:34;0.20;;;0.20;;
13764;SDS011;6953;48.810;9.204;2022-09-27T08:53:11;0.20;;;0.20;;
13764;SDS011;6953;48.810;9.204;2022-09-27T08:55:39;0.30;;;0.30;;
13764;SDS011;6953;48.810;9.204;2022-09-27T09:00:58;0.20;;;0.20;;
13764;SDS011;6953;48.810;9.204;2022-09-27T09:03:27;0.30;;;0.30;;
13764;SDS011;6953;48.810;9.204;2022-09-27T09:08:50;0.30;;;0.30;;
13764;SDS011;6953;48.810;9.204;2022-09-27T09:11:35;0.30;;;0.30;;
13764;SDS011;6953;48.810;9.204;2022-09-27T09:17:35;0.30;;;0.30;;
13764;SDS011;6953;48.810;9.204;2022-09-27T09:22:42;0.45;;;0.45;;
13764;SDS011;6953;48.810;9.204;2022-09-27T09:34:00;0.30;;;0.30;;
13764;SDS011;6953;48.810;9.204;2022-09-27T09:36:38;0.20;;;0.20;;
13764;SDS011;6953;48.810;9.204;2022-09-27T09:39:15;0.30;;;0.30;;
13764;SDS011;6953;48.810;9.204;2022-09-27T09:44:21;0.20;;;0.20;;
13764;SDS011;6953;48.810;9.204;2022-09-27T09:46:48;0.20;;;0.20;;
13764;SDS011;6953;48.810;9.204;2022-09-27T09:52:04;0.20;;;0.20;;
13764;SDS011;6953;48.810;9.204;2022-09-27T09:54:43;0.20;;;0.20;;
13764;SDS011;6953;48.810;9.204;2022-09-27T09:57:14;0.20;;;0.20;;
13764;SDS011;6953;48.810;9.204;2022-09-27T09:59:50;0.20;;;0.20;;
13764;SDS011;6953;48.810;9.204;2022-09-27T10:02:22;0.10;;;0.10;;
13764;SDS011;6953;48.810;9.204;2022-09-27T10:04:59;0.20;;;0.20;;
13764;SDS011;6953;48.810;9.204;2022-09-27T10:07:25;0.20;;;0.20;;
13764;SDS011;6953;48.810;9.204;2022-09-27T10:09:53;0.20;;;0.20;;
13764;SDS011;6953;48.810;9.204;2022-09-27T10:12:23;0.20;;;0.20;;
13764;SDS011;6953;48.810;9.204;2022-09-27T10:14:50;0.30;;;0.30;;
13764;SDS011;6953;48.810;9.204;2022-09-27T10:17:19;0.20;;;0.20;;
13764;SDS011;6953;48.810;9.204;2022-09-27T10:19:47;0.20;;;0.20;;
13764;SDS011;6953;48.810;9.204;2022-09-27T10:22:27;0.20;;;0.20;;
13764;SDS011;6953;48.810;9.204;2022-09-27T10:24:58;0.20;;;0.20;;
13764;SDS011;6953;48.810;9.204;2022-09-27T10:27:39;0.20;;;0.20;;
13764;SDS011;6953;48.810;9.204;2022-09-27T10:30:21;0.22;;;0.22;;
13764;SDS011;6953;48.810;9.204;2022-09-27T10:32:49;0.20;;;0.20;;
13764;SDS011;6953;48.810;9.204;2022-09-27T10:35:30;0.20;;;0.20;;
13764;SDS011;6953;48.810;9.204;2022-09-27T10:38:11;0.20;;;0.20;;
13764;SDS011;6953;48.810;9.204;2022-09-27T10:40:45;0.30;;;0.30;;
13764;SDS011;6953;48.810;9.204;2022-09-27T10:43:34;0.35;;;0.35;;
13764;SDS011;6953;48.810;9.204;2022-09-27T10:46:04;0.20;;;0.20;;
13764;SDS011;6953;48.810;9.204;2022-09-27T10:48:36;0.30;;;0.30;;
13764;SDS011;6953;48.810;9.204;2022-09-27T10:51:06;0.22;;;0.22;;
13764;SDS011;6953;48.810;9.204;2022-09-27T10:53:46;0.30;;;0.30;;
13764;SDS011;6953;48.810;9.204;2022-09-27T10:56:31;0.30;;;0.30;;
13764;SDS011;6953;48.810;9.204;2022-09-27T10:58:58;0.30;;;0.30;;
13764;SDS011;6953;48.810;9.204;2022-09-27T11:01:25;0.20;;;0.20;;
13764;SDS011;6953;48.810;9.204;2022-09-27T11:04:02;0.40;;;0.40;;
13764;SDS011;6953;48.810;9.204;2022-09-27T11:06:29;0.20;;;0.20;;
13764;SDS011;6953;48.810;9.204;2022-09-27T11:11:47;0.30;;;0.30;;
13764;SDS011;6953;48.810;9.204;2022-09-27T11:14:17;0.30;;;0.30;;
13764;SDS011;6953;48.810;9.204;2022-09-27T11:16:46;0.30;;;0.30;;
13764;SDS011;6953;48.810;9.204;2022-09-27T11:19:25;0.30;;;0.30;;
13764;SDS011;6953;48.810;9.204;2022-09-27T11:24:46;0.30;;;0.30;;
13764;SDS011;6953;48.810;9.204;2022-09-27T11:30:13;0.30;;;0.30;;
13764;SDS011;6953;48.810;9.204;2022-09-27T11:35:25;0.30;;;0.30;;
13764;SDS011;6953;48.810;9.204;2022-09-27T11:43:58;0.22;;;0.22;;
13764;SDS011;6953;48.810;9.204;2022-09-27T11:46:27;0.30;;;0.30;;
13764;SDS011;6953;48.810;9.204;2022-09-27T11:49:09;0.30;;;0.30;;
13764;SDS011;6953;48.810;9.204;2022-09-27T11:54:21;0.40;;;0.40;;
13764;SDS011;6953;48.810;9.204;2022-09-27T11:57:09;0.30;;;0.30;;
13764;SDS011;6953;48.810;9.204;2022-09-27T12:10:59;0.40;;;0.40;;
13764;SDS011;6953;48.810;9.204;2022-09-27T12:13:35;0.32;;;0.32;;
13764;SDS011;6953;48.810;9.204;2022-09-27T12:16:05;0.30;;;0.30;;
13764;SDS011;6953;48.810;9.204;2022-09-27T12:18:34;0.50;;;0.50;;
13764;SDS011;6953;48.810;9.204;2022-09-27T12:21:05;0.47;;;0.47;;
13764;SDS011;6953;48.810;9.204;2022-09-27T12:26:06;0.35;;;0.35;;
13764;SDS011;6953;48.810;9.204;2022-09-27T12:28:52;0.50;;;0.50;;
13764;SDS011;6953;48.810;9.204;2022-09-27T12:36:52;0.50;;;0.50;;
13764;SDS011;6953;48.810;9.204;2022-09-27T12:39:37;0.50;;;0.50;;
13764;SDS011;6953;48.810;9.204;2022-09-27T12:42:13;0.50;;;0.50;;
13764;SDS011;6953;48.810;9.204;2022-09-27T12:44:44;0.40;;;0.40;;
13764;SDS011;6953;48.810;9.204;2022-09-27T12:52:52;0.30;;;0.30;;
13764;SDS011;6953;48.810;9.204;2022-09-27T12:55:45;0.50;;;0.50;;
13764;SDS011;6953;48.810;9.204;2022-09-27T12:58:32;0.40;;;0.40;;
13764;SDS011;6953;48.810;9.204;2022-09-27T13:06:47;0.40;;;0.40;;
13764;SDS011;6953;48.810;9.204;2022-09-27T13:09:49;0.40;;;0.40;;
13764;SDS011;6953;48.810;9.204;2022-09-27T13:12:23;0.40;;;0.40;;
13764;SDS011;6953;48.810;9.204;2022-09-27T13:14:56;0.30;;;0.30;;
13764;SDS011;6953;48.810;9.204;2022-09-27T13:22:51;0.30;;;0.30;;
13764;SDS011;6953;48.810;9.204;2022-09-27T13:26:00;0.32;;;0.32;;
13764;SDS011;6953;48.810;9.204;2022-09-27T13:38:52;0.50;;;0.50;;
13764;SDS011;6953;48.810;9.204;2022-09-27T13:41:25;0.40;;;0.40;;
13764;SDS011;6953;48.810;9.204;2022-09-27T13:44:08;0.52;;;0.52;;
13764;SDS011;6953;48.810;9.204;2022-09-27T13:46:48;0.50;;;0.50;;
13764;SDS011;6953;48.810;9.204;2022-09-27T13:49:20;0.50;;;0.50;;
13764;SDS011;6953;48.810;9.204;2022-09-27T13:51:51;0.40;;;0.40;;
13764;SDS011;6953;48.810;9.204;2022-09-27T13:56:58;0.50;;;0.50;;
13764;SDS011;6953;48.810;9.204;2022-09-27T13:59:30;0.50;;;0.50;;
13764;SDS011;6953;48.810;9.204;2022-09-27T14:04:34;0.50;;;0.50;;
13764;SDS011;6953;48.810;9.204;2022-09-27T14:07:06;0.50;;;0.50;;
13764;SDS011;6953;48.810;9.204;2022-09-27T14:09:37;0.40;;;0.40;;
13764;SDS011;6953;48.810;9.204;2022-09-27T14:12:09;0.50;;;0.50;;
13764;SDS011;6953;48.810;9.204;2022-09-27T14:14:40;0.50;;;0.50;;
13764;SDS011;6953;48.810;9.204;2022-09-27T14:17:07;0.50;;;0.50;;
13764;SDS011;6953;48.810;9.204;2022-09-27T14:19:37;0.50;;;0.50;;
13764;SDS011;6953;48.810;9.204;2022-09-27T14:22:14;0.50;;;0.50;;
13764;SDS011;6953;48.810;9.204;2022-09-27T14:24:47;0.50;;;0.50;;
13764;SDS011;6953;48.810;9.204;2022-09-27T14:27:24;0.50;;;0.50;;
13764;SDS011;6953;48.810;9.204;2022-09-27T14:29:55;0.50;;;0.50;;
13764;SDS011;6953;48.810;9.204;2022-09-27T14:32:25;0.30;;;0.30;;
13764;SDS011;6953;48.810;9.204;2022-09-27T14:35:03;0.50;;;0.50;;
13764;SDS011;6953;48.810;9.204;2022-09-27T14:37:29;0.50;;;0.50;;
13764;SDS011;6953;48.810;9.204;2022-09-27T14:39:56;0.40;;;0.40;;
13764;SDS011;6953;48.810;9.204;2022-09-27T14:42:31;0.50;;;0.50;;
13764;SDS011;6953;48.810;9.204;2022-09-27T14:45:02;0.52;;;0.52;;
13764;SDS011;6953;48.810;9.204;2022-09-27T14:47:31;0.50;;;0.50;;
13764;SDS011;6953;48.810;9.204;2022-09-27T14:50:01;0.50;;;0.50;;
13764;SDS011;6953;48.810;9.204;2022-09-27T14:52:37;0.50;;;0.50;;
13764;SDS011;6953;48.810;9.204;2022-09-27T14:55:14;0.40;;;0.40;;
13764;SDS011;6953;48.810;9.204;2022-09-27T14:57:45;0.45;;;0.45;;
13764;SDS011;6953;48.810;9.204;2022-09-27T15:02:56;0.45;;;0.45;;
13764;SDS011;6953;48.810;9.204;2022-09-27T15:05:27;0.50;;;0.50;;
13764;SDS011;6953;48.810;9.204;2022-09-27T15:07:55;0.40;;;0.40;;
13764;SDS011;6953;48.810;9.204;2022-09-27T15:10:26;0.32;;;0.32;;
13764;SDS011;6953;48.810;9.204;2022-09-27T15:12:55;0.32;;;0.32;;
13764;SDS011;6953;48.810;9.204;2022-09-27T15:15:31;0.50;;;0.50;;
13764;SDS011;6953;48.810;9.204;2022-09-27T15:17:59;0.40;;;0.40;;
13764;SDS011;6953;48.810;9.204;2022-09-27T15:22:59;0.40;;;0.40;;
13764;SDS011;6953;48.810;9.204;2022-09-27T15:27:59;0.40;;;0.40;;
13764;SDS011;6953;48.810;9.204;2022-09-27T15:30:34;0.43;;;0.43;;
13764;SDS011;6953;48.810;9.204;2022-09-27T15:33:04;0.43;;;0.43;;
13764;SDS011;6953;48.810;9.204;2022-09-27T15:35:32;0.30;;;0.30;;
13764;SDS011;6953;48.810;9.204;2022-09-27T15:38:09;0.50;;;0.50;;
13764;SDS011;6953;48.810;9.204;2022-09-27T15:40:58;0.40;;;0.40;;
13764;SDS011;6953;48.810;9.204;2022-09-27T15:46:02;0.50;;;0.50;;
13764;SDS011;6953;48.810;9.204;2022-09-27T15:48:30;0.40;;;0.40;;
13764;SDS011;6953;48.810;9.204;2022-09-27T15:50:57;0.40;;;0.40;;
13764;SDS011;6953;48.810;9.204;2022-09-27T15:56:04;0.40;;;0.40;;
13764;SDS011;6953;48.810;9.204;2022-09-27T15:58:30;0.40;;;0.40;;
13764;SDS011;6953;48.810;9.204;2022-09-27T16:00:58;0.30;;;0.30;;
13764;SDS011;6953;48.810;9.204;2022-09-27T16:03:29;0.38;;;0.38;;
13764;SDS011;6953;48.810;9.204;2022-09-27T16:05:56;0.40;;;0.40;;
13764;SDS011;6953;48.810;9.204;2022-09-27T16:08:26;0.30;;;0.30;;
13764;SDS011;6953;48.810;9.204;2022-09-27T16:10:53;0.40;;;0.40;;
13764;SDS011;6953;48.810;9.204;2022-09-27T16:13:21;0.40;;;0.40;;
13764;SDS011;6953;48.810;9.204;2022-09-27T16:15:47;0.40;;;0.40;;
13764;SDS011;6953;48.810;9.204;2022-09-27T16:18:14;0.30;;;0.30;;
13764;SDS011;6953;48.810;9.204;2022-09-27T16:20:39;0.30;;;0.30;;
13764;SDS011;6953;48.810;9.204;2022-09-27T16:23:05;0.40;;;0.40;;
13764;SDS011;6953;48.810;9.204;2022-09-27T16:25:31;0.40;;;0.40;;
13764;SDS011;6953;48.810;9.204;2022-09-27T16:27:57;0.30;;;0.30;;
13764;SDS011;6953;48.810;9.204;2022-09-27T16:30:23;0.40;;;0.40;;
13764;SDS011;6953;48.810;9.204;2022-09-27T16:32:49;0.40;;;0.40;;
13764;SDS011;6953;48.810;9.204;2022-09-27T16:35:16;0.40;;;0.40;;
13764;SDS011;6953;48.810;9.204;2022-09-27T16:37:42;0.40;;;0.40;;
13764;SDS011;6953;48.810;9.204;2022-09-27T16:40:08;0.32;;;0.32;;
13764;SDS011;6953;48.810;9.204;2022-09-27T16:42:35;0.40;;;0.40;;
13764;SDS011;6953;48.810;9.204;2022-09-27T16:45:01;0.50;;;0.50;;
13764;SDS011;6953;48.810;9.204;2022-09-27T16:47:28;0.35;;;0.35;;
13764;SDS011;6953;48.810;9.204;2022-09-27T16:49:53;0.50;;;0.50;;
13764;SDS011;6953;48.810;9.204;2022-09-27T16:52:37;0.45;;;0.45;;
13764;SDS011;6953;48.810;9.204;2022-09-27T16:55:02;0.47;;;0.47;;
13764;SDS011;6953;48.810;9.204;2022-09-27T16:57:30;0.50;;;0.50;;
13764;SDS011;6953;48.810;9.204;2022-09-27T16:59:58;0.50;;;0.50;;
13764;SDS011;6953;48.810;9.204;2022-09-27T17:02:23;0.50;;;0.50;;
13764;SDS011;6953;48.810;9.204;2022-09-27T17:04:49;0.50;;;0.50;;
13764;SDS011;6953;48.810;9.204;2022-09-27T17:07:15;0.43;;;0.43;;
13764;SDS011;6953;48.810;9.204;2022-09-27T17:09:41;0.38;;;0.38;;
13764;SDS011;6953;48.810;9.204;2022-09-27T17:12:06;0.47;;;0.47;;
13764;SDS011;6953;48.810;9.204;2022-09-27T17:14:32;0.50;;;0.50;;
13764;SDS011;6953;48.810;9.204;2022-09-27T17:16:57;0.40;;;0.40;;
13764;SDS011;6953;48.810;9.204;2022-09-27T17:19:22;0.43;;;0.43;;
13764;SDS011;6953;48.810;9.204;2022-09-27T17:21:48;0.50;;;0.50;;
13764;SDS011;6953;48.810;9.204;2022-09-27T17:24:14;0.50;;;0.50;;
13764;SDS011;6953;48.810;9.204;2022-09-27T17:26:39;0.50;;;0.50;;
13764;SDS011;6953;48.810;9.204;2022-09-27T17:29:05;0.40;;;0.40;;
13764;SDS011;6953;48.810;9.204;2022-09-27T17:31:32;0.50;;;0.50;;
13764;SDS011;6953;48.810;9.204;2022-09-27T17:34:00;0.50;;;0.50;;
13764;SDS011;6953;48.810;9.204;2022-09-27T17:36:27;0.50;;;0.50;;
13764;SDS011;6953;48.810;9.204;2022-09-27T17:38:56;0.50;;;0.50;;
13764;SDS011;6953;48.810;9.204;2022-09-27T17:41:23;0.50;;;0.50;;
13764;SDS011;6953;48.810;9.204;2022-09-27T17:43:53;0.40;;;0.40;;
13764;SDS011;6953;48.810;9.204;2022-09-27T17:46:21;0.47;;;0.47;;
13764;SDS011;6953;48.810;9.204;2022-09-27T17:48:48;0.40;;;0.40;;
13764;SDS011;6953;48.810;9.204;2022-09-27T17:51:33;0.40;;;0.40;;